sensor_id;sensor_type;location;lat;lon;timestamp;pressure;altitude;pressure_sealevel;temperature;humidity
6500;BME280;3283;52.330;9.772;2022-09-09T00:04:37;100159.91;;;14.82;100.00
6500;BME280;3283;52.330;9.772;2022-09-09T00:09:45;100162.78;;;14.76;100.00
6500;BME280;3283;52.330;9.772;2022-09-09T00:20:35;100161.72;;;14.56;100.00
6500;BME280;3283;52.330;9.772;2022-09-09T00:26:09;100150.91;;;14.63;100.00
6500;BME280;3283;52.330;9.772;2022-09-09T00:28:52;100151.91;;;14.60;100.00
6500;BME280;3283;52.330;9.772;2022-09-09T00:31:28;100159.88;;;14.59;100.00
6500;BME280;3283;52.330;9.772;2022-09-09T00:33:55;100156.38;;;14.58;100.00
6500;BME280;3283;52.330;9.772;2022-09-09T00:36:25;100159.00;;;14.60;100.00
6500;BME280;3283;52.330;9.772;2022-09-09T00:39:00;100154.78;;;14.54;100.00
6500;BME280;3283;52.330;9.772;2022-09-09T00:41:44;100150.28;;;14.56;100.00
6500;BME280;3283;52.330;9.772;2022-09-09T00:44:34;100150.50;;;14.50;100.00
6500;BME280;3283;52.330;9.772;2022-09-09T00:50:26;100146.50;;;14.38;100.00
6500;BME280;3283;52.330;9.772;2022-09-09T00:55:49;100154.88;;;14.26;100.00
6500;BME280;3283;52.330;9.772;2022-09-09T00:58:19;100143.47;;;14.24;100.00
6500;BME280;3283;52.330;9.772;2022-09-09T01:00:50;100153.34;;;14.19;100.00
6500;BME280;3283;52.330;9.772;2022-09-09T01:10:58;100162.78;;;14.01;100.00
6500;BME280;3283;52.330;9.772;2022-09-09T01:13:30;100159.19;;;14.04;100.00
6500;BME280;3283;52.330;9.772;2022-09-09T01:15:58;100160.84;;;14.06;100.00
6500;BME280;3283;52.330;9.772;2022-09-09T01:18:29;100157.28;;;14.07;100.00
6500;BME280;3283;52.330;9.772;2022-09-09T01:21:08;100152.91;;;14.06;100.00
6500;BME280;3283;52.330;9.772;2022-09-09T01:26:45;100147.19;;;13.93;100.00
6500;BME280;3283;52.330;9.772;2022-09-09T01:29:16;100147.03;;;13.98;100.00
6500;BME280;3283;52.330;9.772;2022-09-09T01:31:54;100152.19;;;14.01;100.00
6500;BME280;3283;52.330;9.772;2022-09-09T01:34:21;100151.13;;;14.07;100.00
6500;BME280;3283;52.330;9.772;2022-09-09T01:37:06;100146.16;;;13.97;100.00
6500;BME280;3283;52.330;9.772;2022-09-09T01:39:36;100149.56;;;14.01;100.00
6500;BME280;3283;52.330;9.772;2022-09-09T01:42:05;100149.72;;;13.96;100.00
6500;BME280;3283;52.330;9.772;2022-09-09T01:44:33;100149.81;;;13.93;100.00
6500;BME280;3283;52.330;9.772;2022-09-09T01:46:59;100144.72;;;13.89;100.00
6500;BME280;3283;52.330;9.772;2022-09-09T01:49:25;100147.34;;;13.89;100.00
6500;BME280;3283;52.330;9.772;2022-09-09T01:51:55;100144.78;;;13.86;100.00
6500;BME280;3283;52.330;9.772;2022-09-09T01:54:26;100144.00;;;13.84;100.00
6500;BME280;3283;52.330;9.772;2022-09-09T02:00:01;100151.75;;;13.88;100.00
6500;BME280;3283;52.330;9.772;2022-09-09T02:02:36;100164.22;;;13.85;100.00
6500;BME280;3283;52.330;9.772;2022-09-09T02:05:16;100164.28;;;13.83;100.00
6500;BME280;3283;52.330;9.772;2022-09-09T02:07:57;100153.25;;;13.97;100.00
6500;BME280;3283;52.330;9.772;2022-09-09T02:13:18;100158.81;;;14.14;100.00
6500;BME280;3283;52.330;9.772;2022-09-09T02:15:56;100135.19;;;14.08;100.00
6500;BME280;3283;52.330;9.772;2022-09-09T02:18:38;100149.94;;;14.15;100.00
6500;BME280;3283;52.330;9.772;2022-09-09T02:21:07;100151.56;;;14.19;100.00
6500;BME280;3283;52.330;9.772;2022-09-09T02:23:33;100152.56;;;14.17;100.00
6500;BME280;3283;52.330;9.772;2022-09-09T02:26:01;100146.28;;;14.19;100.00
6500;BME280;3283;52.330;9.772;2022-09-09T02:28:29;100138.56;;;14.13;100.00
6500;BME280;3283;52.330;9.772;2022-09-09T02:30:57;100146.16;;;14.22;100.00
6500;BME280;3283;52.330;9.772;2022-09-09T02:33:26;100147.03;;;14.23;100.00
6500;BME280;3283;52.330;9.772;2022-09-09T02:35:53;100142.50;;;14.26;100.00
6500;BME280;3283;52.330;9.772;2022-09-09T02:38:25;100141.41;;;14.32;100.00
6500;BME280;3283;52.330;9.772;2022-09-09T02:40:53;100135.91;;;14.38;100.00
6500;BME280;3283;52.330;9.772;2022-09-09T02:43:19;100135.84;;;14.40;100.00
6500;BME280;3283;52.330;9.772;2022-09-09T02:46:05;100143.00;;;14.38;100.00
6500;BME280;3283;52.330;9.772;2022-09-09T02:48:47;100140.09;;;14.44;100.00
6500;BME280;3283;52.330;9.772;2022-09-09T02:51:47;100123.31;;;14.45;100.00
6500;BME280;3283;52.330;9.772;2022-09-09T02:54:37;100146.69;;;14.57;100.00
6500;BME280;3283;52.330;9.772;2022-09-09T02:59:39;100147.53;;;14.59;100.00
6500;BME280;3283;52.330;9.772;2022-09-09T03:02:05;100146.47;;;14.63;100.00
6500;BME280;3283;52.330;9.772;2022-09-09T03:04:31;100147.19;;;14.68;100.00
6500;BME280;3283;52.330;9.772;2022-09-09T03:06:58;100153.19;;;14.73;100.00
6500;BME280;3283;52.330;9.772;2022-09-09T03:09:24;100156.50;;;14.78;100.00
6500;BME280;3283;52.330;9.772;2022-09-09T03:11:51;100155.47;;;14.82;100.00
6500;BME280;3283;52.330;9.772;2022-09-09T03:14:17;100157.25;;;14.82;100.00
6500;BME280;3283;52.330;9.772;2022-09-09T03:16:47;100150.81;;;14.89;100.00
6500;BME280;3283;52.330;9.772;2022-09-09T03:19:13;100157.69;;;14.93;100.00
6500;BME280;3283;52.330;9.772;2022-09-09T03:21:38;100143.88;;;14.85;100.00
6500;BME280;3283;52.330;9.772;2022-09-09T03:24:04;100160.41;;;14.92;100.00
6500;BME280;3283;52.330;9.772;2022-09-09T03:26:30;100148.88;;;14.93;100.00
6500;BME280;3283;52.330;9.772;2022-09-09T03:28:57;100148.88;;;14.93;100.00
6500;BME280;3283;52.330;9.772;2022-09-09T03:31:22;100144.88;;;14.82;100.00
6500;BME280;3283;52.330;9.772;2022-09-09T03:33:48;100150.97;;;14.84;100.00
6500;BME280;3283;52.330;9.772;2022-09-09T03:36:14;100154.19;;;14.93;100.00
6500;BME280;3283;52.330;9.772;2022-09-09T03:38:41;100152.38;;;14.95;100.00
6500;BME280;3283;52.330;9.772;2022-09-09T03:41:07;100146.88;;;14.99;100.00
6500;BME280;3283;52.330;9.772;2022-09-09T03:43:33;100148.56;;;15.02;100.00
6500;BME280;3283;52.330;9.772;2022-09-09T03:45:59;100150.50;;;14.97;100.00
6500;BME280;3283;52.330;9.772;2022-09-09T03:48:25;100148.78;;;14.96;100.00
6500;BME280;3283;52.330;9.772;2022-09-09T03:50:54;100148.03;;;14.92;100.00
6500;BME280;3283;52.330;9.772;2022-09-09T03:53:23;100147.22;;;14.90;100.00
6500;BME280;3283;52.330;9.772;2022-09-09T03:55:51;100147.88;;;14.97;100.00
6500;BME280;3283;52.330;9.772;2022-09-09T03:58:21;100140.53;;;15.03;100.00
6500;BME280;3283;52.330;9.772;2022-09-09T04:00:56;100144.75;;;15.09;100.00
6500;BME280;3283;52.330;9.772;2022-09-09T04:03:22;100141.28;;;15.07;100.00
6500;BME280;3283;52.330;9.772;2022-09-09T04:05:53;100127.47;;;14.99;100.00
6500;BME280;3283;52.330;9.772;2022-09-09T04:08:20;100145.78;;;15.05;100.00
6500;BME280;3283;52.330;9.772;2022-09-09T04:10:47;100143.25;;;15.02;100.00
6500;BME280;3283;52.330;9.772;2022-09-09T04:13:14;100141.41;;;15.04;100.00
6500;BME280;3283;52.330;9.772;2022-09-09T04:15:44;100144.75;;;15.09;100.00
6500;BME280;3283;52.330;9.772;2022-09-09T04:18:15;100150.94;;;15.08;100.00
6500;BME280;3283;52.330;9.772;2022-09-09T04:20:40;100155.34;;;15.09;100.00
6500;BME280;3283;52.330;9.772;2022-09-09T04:23:05;100156.94;;;15.13;100.00
6500;BME280;3283;52.330;9.772;2022-09-09T04:25:31;100151.41;;;15.19;100.00
6500;BME280;3283;52.330;9.772;2022-09-09T04:27:57;100152.94;;;15.25;100.00
6500;BME280;3283;52.330;9.772;2022-09-09T04:30:24;100159.66;;;15.33;100.00
6500;BME280;3283;52.330;9.772;2022-09-09T04:32:50;100153.63;;;15.30;100.00
6500;BME280;3283;52.330;9.772;2022-09-09T04:35:16;100158.66;;;15.36;100.00
6500;BME280;3283;52.330;9.772;2022-09-09T04:37:41;100152.25;;;15.42;100.00
6500;BME280;3283;52.330;9.772;2022-09-09T04:40:07;100156.59;;;15.44;100.00
6500;BME280;3283;52.330;9.772;2022-09-09T04:42:36;100161.69;;;15.49;100.00
6500;BME280;3283;52.330;9.772;2022-09-09T04:45:02;100153.88;;;15.46;100.00
6500;BME280;3283;52.330;9.772;2022-09-09T04:47:27;100159.97;;;15.48;100.00
6500;BME280;3283;52.330;9.772;2022-09-09T04:49:53;100159.13;;;15.47;100.00
6500;BME280;3283;52.330;9.772;2022-09-09T04:52:20;100167.69;;;15.54;100.00
6500;BME280;3283;52.330;9.772;2022-09-09T04:54:45;100170.22;;;15.57;100.00
6500;BME280;3283;52.330;9.772;2022-09-09T04:57:11;100172.25;;;15.50;100.00
6500;BME280;3283;52.330;9.772;2022-09-09T04:59:37;100169.56;;;15.52;100.00
6500;BME280;3283;52.330;9.772;2022-09-09T05:02:03;100156.41;;;15.49;100.00
6500;BME280;3283;52.330;9.772;2022-09-09T05:04:29;100166.69;;;15.56;100.00
6500;BME280;3283;52.330;9.772;2022-09-09T05:06:55;100161.34;;;15.58;100.00
6500;BME280;3283;52.330;9.772;2022-09-09T05:09:20;100173.63;;;15.60;100.00
6500;BME280;3283;52.330;9.772;2022-09-09T05:11:46;100164.97;;;15.55;100.00
6500;BME280;3283;52.330;9.772;2022-09-09T05:14:11;100163.09;;;15.57;100.00
6500;BME280;3283;52.330;9.772;2022-09-09T05:16:37;100175.19;;;15.66;100.00
6500;BME280;3283;52.330;9.772;2022-09-09T05:19:03;100181.47;;;15.63;100.00
6500;BME280;3283;52.330;9.772;2022-09-09T05:21:28;100174.13;;;15.70;100.00
6500;BME280;3283;52.330;9.772;2022-09-09T05:23:56;100175.97;;;15.68;100.00
6500;BME280;3283;52.330;9.772;2022-09-09T05:26:22;100176.91;;;15.67;100.00
6500;BME280;3283;52.330;9.772;2022-09-09T05:28:48;100183.69;;;15.74;100.00
6500;BME280;3283;52.330;9.772;2022-09-09T05:31:16;100186.09;;;15.80;100.00
6500;BME280;3283;52.330;9.772;2022-09-09T05:33:43;100170.44;;;15.74;100.00
6500;BME280;3283;52.330;9.772;2022-09-09T05:36:11;100185.03;;;15.84;100.00
6500;BME280;3283;52.330;9.772;2022-09-09T05:38:40;100188.63;;;15.83;100.00
6500;BME280;3283;52.330;9.772;2022-09-09T05:41:07;100183.44;;;15.80;100.00
6500;BME280;3283;52.330;9.772;2022-09-09T05:43:33;100189.53;;;15.82;100.00
6500;BME280;3283;52.330;9.772;2022-09-09T05:46:08;100188.19;;;15.94;100.00
6500;BME280;3283;52.330;9.772;2022-09-09T05:48:36;100192.22;;;16.03;100.00
6500;BME280;3283;52.330;9.772;2022-09-09T05:51:04;100193.69;;;16.10;100.00
6500;BME280;3283;52.330;9.772;2022-09-09T05:53:30;100188.25;;;16.13;100.00
6500;BME280;3283;52.330;9.772;2022-09-09T05:56:16;100176.16;;;16.06;100.00
6500;BME280;3283;52.330;9.772;2022-09-09T05:58:45;100195.09;;;16.18;100.00
6500;BME280;3283;52.330;9.772;2022-09-09T06:03:49;100198.81;;;16.35;100.00
6500;BME280;3283;52.330;9.772;2022-09-09T06:06:26;100195.03;;;16.40;100.00
6500;BME280;3283;52.330;9.772;2022-09-09T06:08:54;100202.31;;;16.56;100.00
6500;BME280;3283;52.330;9.772;2022-09-09T06:11:25;100198.44;;;16.63;100.00
6500;BME280;3283;52.330;9.772;2022-09-09T06:13:52;100189.03;;;16.56;100.00
6500;BME280;3283;52.330;9.772;2022-09-09T06:16:21;100199.72;;;16.54;100.00
6500;BME280;3283;52.330;9.772;2022-09-09T06:18:50;100201.06;;;16.64;100.00
6500;BME280;3283;52.330;9.772;2022-09-09T06:21:21;100193.13;;;16.63;100.00
6500;BME280;3283;52.330;9.772;2022-09-09T06:23:48;100199.81;;;16.73;100.00
6500;BME280;3283;52.330;9.772;2022-09-09T06:26:16;100202.63;;;16.68;100.00
6500;BME280;3283;52.330;9.772;2022-09-09T06:28:46;100199.94;;;16.70;100.00
6500;BME280;3283;52.330;9.772;2022-09-09T06:31:14;100205.25;;;16.70;100.00
6500;BME280;3283;52.330;9.772;2022-09-09T06:33:42;100199.81;;;16.73;100.00
6500;BME280;3283;52.330;9.772;2022-09-09T06:36:15;100196.97;;;16.78;100.00
6500;BME280;3283;52.330;9.772;2022-09-09T06:38:41;100194.59;;;16.90;100.00
6500;BME280;3283;52.330;9.772;2022-09-09T06:41:09;100194.09;;;17.01;100.00
6500;BME280;3283;52.330;9.772;2022-09-09T06:43:35;100197.56;;;17.03;100.00
6500;BME280;3283;52.330;9.772;2022-09-09T06:46:01;100191.59;;;17.17;100.00
6500;BME280;3283;52.330;9.772;2022-09-09T06:48:28;100192.66;;;17.32;100.00
6500;BME280;3283;52.330;9.772;2022-09-09T06:51:09;100194.19;;;17.37;100.00
6500;BME280;3283;52.330;9.772;2022-09-09T06:53:36;100194.75;;;17.44;100.00
6500;BME280;3283;52.330;9.772;2022-09-09T06:58:40;100193.84;;;17.81;100.00
6500;BME280;3283;52.330;9.772;2022-09-09T07:01:14;100191.59;;;17.91;100.00
6500;BME280;3283;52.330;9.772;2022-09-09T07:03:40;100192.84;;;18.01;100.00
6500;BME280;3283;52.330;9.772;2022-09-09T07:06:08;100176.00;;;18.00;100.00
6500;BME280;3283;52.330;9.772;2022-09-09T07:08:34;100192.75;;;18.02;100.00
6500;BME280;3283;52.330;9.772;2022-09-09T07:11:04;100193.56;;;18.22;100.00
6500;BME280;3283;52.330;9.772;2022-09-09T07:13:31;100189.63;;;18.46;100.00
6500;BME280;3283;52.330;9.772;2022-09-09T07:16:17;100186.41;;;18.57;100.00
6500;BME280;3283;52.330;9.772;2022-09-09T07:18:43;100189.75;;;18.60;100.00
6500;BME280;3283;52.330;9.772;2022-09-09T07:21:11;100194.66;;;18.70;100.00
6500;BME280;3283;52.330;9.772;2022-09-09T07:23:38;100187.66;;;18.67;100.00
6500;BME280;3283;52.330;9.772;2022-09-09T07:26:15;100201.47;;;18.75;100.00
6500;BME280;3283;52.330;9.772;2022-09-09T07:28:41;100201.47;;;18.75;100.00
6500;BME280;3283;52.330;9.772;2022-09-09T07:33:38;100189.53;;;18.82;100.00
6500;BME280;3283;52.330;9.772;2022-09-09T07:36:14;100197.16;;;18.88;100.00
6500;BME280;3283;52.330;9.772;2022-09-09T07:38:51;100200.88;;;18.86;100.00
6500;BME280;3283;52.330;9.772;2022-09-09T07:41:24;100196.31;;;18.88;100.00
6500;BME280;3283;52.330;9.772;2022-09-09T07:43:50;100196.59;;;18.99;100.00
6500;BME280;3283;52.330;9.772;2022-09-09T07:46:18;100187.94;;;19.11;100.00
6500;BME280;3283;52.330;9.772;2022-09-09T07:48:50;100190.31;;;19.16;100.00
6500;BME280;3283;52.330;9.772;2022-09-09T07:51:18;100204.56;;;19.32;100.00
6500;BME280;3283;52.330;9.772;2022-09-09T07:53:48;100190.69;;;19.26;100.00
6500;BME280;3283;52.330;9.772;2022-09-09T07:56:18;100201.00;;;19.16;100.00
6500;BME280;3283;52.330;9.772;2022-09-09T07:58:47;100197.91;;;19.24;100.00
6500;BME280;3283;52.330;9.772;2022-09-09T08:01:15;100202.03;;;19.13;100.00
6500;BME280;3283;52.330;9.772;2022-09-09T08:03:44;100197.22;;;19.04;100.00
6500;BME280;3283;52.330;9.772;2022-09-09T08:06:11;100205.97;;;18.90;100.00
6500;BME280;3283;52.330;9.772;2022-09-09T08:08:38;100206.06;;;18.89;100.00
6500;BME280;3283;52.330;9.772;2022-09-09T08:13:34;100208.75;;;19.20;100.00
6500;BME280;3283;52.330;9.772;2022-09-09T08:18:32;100210.75;;;19.80;100.00
6500;BME280;3283;52.330;9.772;2022-09-09T08:20:58;100210.91;;;19.93;100.00
6500;BME280;3283;52.330;9.772;2022-09-09T08:23:29;100211.31;;;20.01;100.00
6500;BME280;3283;52.330;9.772;2022-09-09T08:25:54;100214.44;;;19.93;99.24
6500;BME280;3283;52.330;9.772;2022-09-09T08:28:20;100213.66;;;19.91;99.65
6500;BME280;3283;52.330;9.772;2022-09-09T08:30:45;100211.91;;;20.06;100.00
6500;BME280;3283;52.330;9.772;2022-09-09T08:33:11;100219.03;;;20.21;97.44
6500;BME280;3283;52.330;9.772;2022-09-09T08:35:36;100218.19;;;20.51;94.19
6500;BME280;3283;52.330;9.772;2022-09-09T08:38:02;100222.03;;;20.61;92.26
6500;BME280;3283;52.330;9.772;2022-09-09T08:40:33;100225.44;;;20.63;91.01
6500;BME280;3283;52.330;9.772;2022-09-09T08:43:06;100223.66;;;20.78;90.74
6500;BME280;3283;52.330;9.772;2022-09-09T08:45:50;100228.22;;;20.62;88.87
6500;BME280;3283;52.330;9.772;2022-09-09T08:51:07;100234.91;;;20.69;90.47
6500;BME280;3283;52.330;9.772;2022-09-09T08:53:52;100243.16;;;20.80;89.45
6500;BME280;3283;52.330;9.772;2022-09-09T08:56:23;100237.59;;;20.83;89.39
6500;BME280;3283;52.330;9.772;2022-09-09T08:58:51;100240.19;;;20.99;87.91
6500;BME280;3283;52.330;9.772;2022-09-09T09:01:48;100242.69;;;21.16;87.92
6500;BME280;3283;52.330;9.772;2022-09-09T09:12:21;100249.16;;;21.26;85.19
6500;BME280;3283;52.330;9.772;2022-09-09T09:14:48;100240.88;;;21.45;84.23
6500;BME280;3283;52.330;9.772;2022-09-09T09:17:19;100248.94;;;21.72;82.44
6500;BME280;3283;52.330;9.772;2022-09-09T09:19:47;100244.88;;;21.52;82.36
6500;BME280;3283;52.330;9.772;2022-09-09T09:27:36;100253.31;;;21.87;82.15
6500;BME280;3283;52.330;9.772;2022-09-09T09:33:31;100235.88;;;22.22;81.34
6500;BME280;3283;52.330;9.772;2022-09-09T09:35:28;100235.22;;;22.18;79.61
6500;BME280;3283;52.330;9.772;2022-09-09T09:37:54;100239.72;;;22.17;81.75
6500;BME280;3283;52.330;9.772;2022-09-09T09:40:21;100244.50;;;22.12;80.12
6500;BME280;3283;52.330;9.772;2022-09-09T09:42:57;100239.72;;;22.17;81.78
6500;BME280;3283;52.330;9.772;2022-09-09T09:45:27;100236.31;;;22.28;80.31
6500;BME280;3283;52.330;9.772;2022-09-09T09:48:05;100240.47;;;22.19;81.19
6500;BME280;3283;52.330;9.772;2022-09-09T09:50:32;100233.94;;;22.24;81.28
6500;BME280;3283;52.330;9.772;2022-09-09T09:53:05;100232.69;;;22.29;80.76
6500;BME280;3283;52.330;9.772;2022-09-09T09:55:33;100229.16;;;22.54;80.52
6500;BME280;3283;52.330;9.772;2022-09-09T09:58:04;100228.69;;;22.87;77.59
6500;BME280;3283;52.330;9.772;2022-09-09T10:00:30;100226.63;;;23.16;75.50
6500;BME280;3283;52.330;9.772;2022-09-09T10:02:56;100224.88;;;23.28;74.41
6500;BME280;3283;52.330;9.772;2022-09-09T10:05:25;100226.53;;;23.05;76.47
6500;BME280;3283;52.330;9.772;2022-09-09T10:08:27;100224.25;;;22.73;76.18
6500;BME280;3283;52.330;9.772;2022-09-09T10:11:05;100225.84;;;22.51;77.92
6500;BME280;3283;52.330;9.772;2022-09-09T10:16:21;100220.78;;;22.06;79.40
6500;BME280;3283;52.330;9.772;2022-09-09T10:19:00;100215.88;;;22.13;80.59
6500;BME280;3283;52.330;9.772;2022-09-09T10:24:26;100214.13;;;22.39;80.12
6500;BME280;3283;52.330;9.772;2022-09-09T10:37:55;100218.97;;;21.53;86.38
6500;BME280;3283;52.330;9.772;2022-09-09T10:52:10;100220.53;;;21.43;87.26
6500;BME280;3283;52.330;9.772;2022-09-09T10:59:50;100224.38;;;21.92;85.66
6500;BME280;3283;52.330;9.772;2022-09-09T11:02:29;100218.44;;;22.67;83.42
6500;BME280;3283;52.330;9.772;2022-09-09T11:05:02;100214.69;;;23.20;81.52
6500;BME280;3283;52.330;9.772;2022-09-09T11:07:39;100222.66;;;22.71;78.57
6500;BME280;3283;52.330;9.772;2022-09-09T11:10:34;100234.59;;;22.27;76.52
6500;BME280;3283;52.330;9.772;2022-09-09T11:13:03;100220.22;;;21.74;77.50
6500;BME280;3283;52.330;9.772;2022-09-09T11:18:03;100215.72;;;21.33;77.79
6500;BME280;3283;52.330;9.772;2022-09-09T11:20:29;100217.38;;;21.22;78.95
6500;BME280;3283;52.330;9.772;2022-09-09T11:23:11;100220.44;;;20.87;77.38
6500;BME280;3283;52.330;9.772;2022-09-09T11:25:40;100226.31;;;20.78;79.08
6500;BME280;3283;52.330;9.772;2022-09-09T11:33:30;100278.56;;;17.34;100.00
6500;BME280;3283;52.330;9.772;2022-09-09T11:44:41;100255.69;;;15.42;100.00
6500;BME280;3283;52.330;9.772;2022-09-09T11:49:54;100230.56;;;15.28;100.00
6500;BME280;3283;52.330;9.772;2022-09-09T11:52:34;100250.16;;;15.48;100.00
6500;BME280;3283;52.330;9.772;2022-09-09T11:55:20;100244.69;;;15.52;100.00
6500;BME280;3283;52.330;9.772;2022-09-09T11:58:17;100238.97;;;15.63;100.00
6500;BME280;3283;52.330;9.772;2022-09-09T12:00:48;100216.03;;;15.62;100.00
6500;BME280;3283;52.330;9.772;2022-09-09T12:03:34;100232.06;;;15.81;100.00
6500;BME280;3283;52.330;9.772;2022-09-09T12:17:29;100228.75;;;16.38;100.00
6500;BME280;3283;52.330;9.772;2022-09-09T12:34:40;100238.53;;;19.44;100.00
6500;BME280;3283;52.330;9.772;2022-09-09T12:42:57;100219.06;;;20.51;100.00
6500;BME280;3283;52.330;9.772;2022-09-09T12:45:30;100219.72;;;20.55;94.19
6500;BME280;3283;52.330;9.772;2022-09-09T12:48:08;100217.72;;;20.59;94.87
6500;BME280;3283;52.330;9.772;2022-09-09T12:53:15;100218.13;;;20.67;97.25
6500;BME280;3283;52.330;9.772;2022-09-09T12:55:56;100213.31;;;20.72;98.02
6500;BME280;3283;52.330;9.772;2022-09-09T12:58:22;100221.56;;;20.83;100.00
6500;BME280;3283;52.330;9.772;2022-09-09T13:00:51;100203.41;;;20.88;97.74
6500;BME280;3283;52.330;9.772;2022-09-09T13:03:19;100219.38;;;20.90;96.93
6500;BME280;3283;52.330;9.772;2022-09-09T13:05:46;100217.94;;;20.84;99.06
6500;BME280;3283;52.330;9.772;2022-09-09T13:08:13;100214.28;;;20.99;97.60
6500;BME280;3283;52.330;9.772;2022-09-09T13:10:43;100215.94;;;21.02;95.78
6500;BME280;3283;52.330;9.772;2022-09-09T13:13:21;100214.03;;;20.90;93.60
6500;BME280;3283;52.330;9.772;2022-09-09T13:15:56;100223.66;;;20.78;96.98
6500;BME280;3283;52.330;9.772;2022-09-09T13:18:25;100218.38;;;20.62;97.75
6500;BME280;3283;52.330;9.772;2022-09-09T13:20:52;100219.50;;;20.44;97.33
6500;BME280;3283;52.330;9.772;2022-09-09T13:23:20;100217.31;;;20.20;97.63
6500;BME280;3283;52.330;9.772;2022-09-09T13:25:54;100211.16;;;20.04;100.00
6500;BME280;3283;52.330;9.772;2022-09-09T13:28:22;100210.16;;;19.91;100.00
6500;BME280;3283;52.330;9.772;2022-09-09T13:31:21;100201.22;;;19.76;100.00
6500;BME280;3283;52.330;9.772;2022-09-09T13:33:47;100196.91;;;19.73;100.00
6500;BME280;3283;52.330;9.772;2022-09-09T13:36:13;100196.13;;;19.71;100.00
6500;BME280;3283;52.330;9.772;2022-09-09T13:41:22;100187.59;;;19.65;100.00
6500;BME280;3283;52.330;9.772;2022-09-09T13:43:50;100178.94;;;19.61;100.00
6500;BME280;3283;52.330;9.772;2022-09-09T13:46:38;100184.34;;;19.60;100.00
6500;BME280;3283;52.330;9.772;2022-09-09T13:54:06;100179.25;;;19.71;100.00
6500;BME280;3283;52.330;9.772;2022-09-09T13:56:35;100173.25;;;19.67;100.00
6500;BME280;3283;52.330;9.772;2022-09-09T13:59:02;100168.47;;;19.72;100.00
6500;BME280;3283;52.330;9.772;2022-09-09T14:01:28;100164.50;;;19.80;100.00
6500;BME280;3283;52.330;9.772;2022-09-09T14:03:54;100174.59;;;20.05;98.48
6500;BME280;3283;52.330;9.772;2022-09-09T14:06:19;100171.38;;;20.14;99.81
6500;BME280;3283;52.330;9.772;2022-09-09T14:08:47;100170.06;;;20.21;98.94
6500;BME280;3283;52.330;9.772;2022-09-09T14:11:14;100180.31;;;20.43;97.48
6500;BME280;3283;52.330;9.772;2022-09-09T14:13:39;100174.09;;;20.58;95.16
6500;BME280;3283;52.330;9.772;2022-09-09T14:16:05;100161.59;;;20.73;93.16
6500;BME280;3283;52.330;9.772;2022-09-09T14:18:30;100155.91;;;20.92;93.49
6500;BME280;3283;52.330;9.772;2022-09-09T14:20:57;100158.97;;;21.00;92.39
6500;BME280;3283;52.330;9.772;2022-09-09T14:23:24;100161.25;;;21.06;90.86
6500;BME280;3283;52.330;9.772;2022-09-09T14:25:50;100157.59;;;21.21;92.27
6500;BME280;3283;52.330;9.772;2022-09-09T14:28:16;100153.19;;;21.34;89.10
6500;BME280;3283;52.330;9.772;2022-09-09T14:30:43;100160.78;;;21.55;86.15
6500;BME280;3283;52.330;9.772;2022-09-09T14:33:12;100141.47;;;21.64;83.69
6500;BME280;3283;52.330;9.772;2022-09-09T14:35:38;100149.72;;;21.74;82.70
6500;BME280;3283;52.330;9.772;2022-09-09T14:38:04;100151.31;;;22.03;81.76
6500;BME280;3283;52.330;9.772;2022-09-09T14:40:30;100158.66;;;22.39;80.76
6500;BME280;3283;52.330;9.772;2022-09-09T14:42:56;100153.75;;;22.59;79.37
6500;BME280;3283;52.330;9.772;2022-09-09T14:45:23;100143.66;;;22.75;78.21
6500;BME280;3283;52.330;9.772;2022-09-09T14:47:50;100152.00;;;22.83;77.89
6500;BME280;3283;52.330;9.772;2022-09-09T14:50:16;100148.28;;;22.98;76.73
6500;BME280;3283;52.330;9.772;2022-09-09T14:52:42;100137.59;;;23.10;75.55
6500;BME280;3283;52.330;9.772;2022-09-09T14:55:07;100143.63;;;23.13;75.21
6500;BME280;3283;52.330;9.772;2022-09-09T14:57:33;100120.03;;;23.06;76.88
6500;BME280;3283;52.330;9.772;2022-09-09T15:00:00;100134.66;;;23.25;74.79
6500;BME280;3283;52.330;9.772;2022-09-09T15:02:25;100134.63;;;23.38;74.88
6500;BME280;3283;52.330;9.772;2022-09-09T15:04:51;100134.75;;;23.84;71.77
6500;BME280;3283;52.330;9.772;2022-09-09T15:07:17;100123.47;;;24.15;70.29
6500;BME280;3283;52.330;9.772;2022-09-09T15:09:44;100133.97;;;24.64;68.93
6500;BME280;3283;52.330;9.772;2022-09-09T15:12:12;100138.00;;;24.92;66.88
6500;BME280;3283;52.330;9.772;2022-09-09T15:14:39;100137.41;;;24.88;67.55
6500;BME280;3283;52.330;9.772;2022-09-09T15:17:04;100143.69;;;23.85;72.70
6500;BME280;3283;52.330;9.772;2022-09-09T15:19:29;100145.25;;;22.90;74.65
6500;BME280;3283;52.330;9.772;2022-09-09T15:21:55;100142.81;;;22.36;77.57
6500;BME280;3283;52.330;9.772;2022-09-09T15:24:20;100144.47;;;22.12;76.72
6500;BME280;3283;52.330;9.772;2022-09-09T15:26:46;100137.47;;;21.97;78.20
6500;BME280;3283;52.330;9.772;2022-09-09T15:29:11;100125.13;;;22.21;78.92
6500;BME280;3283;52.330;9.772;2022-09-09T15:31:37;100142.94;;;22.35;77.61
6500;BME280;3283;52.330;9.772;2022-09-09T15:34:05;100132.94;;;22.24;76.52
6500;BME280;3283;52.330;9.772;2022-09-09T15:36:33;100135.72;;;22.23;78.59
6500;BME280;3283;52.330;9.772;2022-09-09T15:38:59;100133.34;;;22.69;79.30
6500;BME280;3283;52.330;9.772;2022-09-09T15:41:26;100141.66;;;23.28;75.97
6500;BME280;3283;52.330;9.772;2022-09-09T15:43:54;100139.09;;;23.14;76.39
6500;BME280;3283;52.330;9.772;2022-09-09T15:46:35;100137.47;;;23.11;79.32
6500;BME280;3283;52.330;9.772;2022-09-09T15:49:13;100140.22;;;22.98;77.97
6500;BME280;3283;52.330;9.772;2022-09-09T15:51:41;100143.88;;;22.72;77.71
6500;BME280;3283;52.330;9.772;2022-09-09T15:54:08;100142.59;;;22.52;79.46
6500;BME280;3283;52.330;9.772;2022-09-09T15:56:34;100147.53;;;22.45;80.28
6500;BME280;3283;52.330;9.772;2022-09-09T15:59:00;100148.91;;;22.38;79.77
6500;BME280;3283;52.330;9.772;2022-09-09T16:01:28;100149.78;;;22.52;82.14
6500;BME280;3283;52.330;9.772;2022-09-09T16:03:54;100150.09;;;22.72;82.55
6500;BME280;3283;52.330;9.772;2022-09-09T16:06:21;100150.53;;;23.05;81.86
6500;BME280;3283;52.330;9.772;2022-09-09T16:08:49;100144.19;;;23.90;76.78